Time;durP1;ratioP1;P1;durP2;ratioP2;P2;SDS_P1;SDS_P2;PMS_P1;PMS_P2;Temp;Humidity;BMP_temperature;BMP_pressure;BME280_temperature;BME280_humidity;BME280_pressure;Samples;Min_cycle;Max_cycle;Signal;HPM_P1;HPM_P2
2023/05/22 00:00:14;;;;;;;5.03;4.50;;;;;;;20.70;57.42;101450.41;6123028;23;20085;-51
2023/05/22 00:02:42;;;;;;;7.38;5.30;;;;;;;20.70;57.73;101455.00;6123683;23;20432;-53
2023/05/22 00:05:09;;;;;;;8.55;5.20;;;;;;;20.69;57.87;101458.69;6123442;23;20311;-53
2023/05/22 00:07:35;;;;;;;7.75;5.00;;;;;;;20.68;57.86;101457.84;6123002;23;20450;-52
2023/05/22 00:10:00;;;;;;;8.68;4.80;;;;;;;20.69;57.69;101454.16;6097210;23;20006;-52
2023/05/22 00:12:26;;;;;;;8.88;5.78;;;;;;;20.68;57.95;101455.13;6123013;23;20076;-50
2023/05/22 00:14:51;;;;;;;5.78;4.97;;;;;;;20.68;57.79;101449.72;6122971;23;20096;-52
2023/05/22 00:17:17;;;;;;;9.32;4.68;;;;;;;20.69;57.81;101458.69;6122689;23;20009;-52
2023/05/22 00:19:42;;;;;;;5.65;4.47;;;;;;;20.68;57.30;101460.53;6122722;23;20009;-53
2023/05/22 00:22:08;;;;;;;6.72;4.68;;;;;;;20.67;57.48;101453.41;6123557;23;20014;-52
2023/05/22 00:24:34;;;;;;;5.90;4.43;;;;;;;20.67;57.45;101449.88;6122900;23;20045;-52
2023/05/22 00:26:59;;;;;;;6.75;5.00;;;;;;;20.67;57.30;101452.56;6122716;23;20076;-53
2023/05/22 00:29:25;;;;;;;5.15;4.50;;;;;;;20.66;57.44;101448.19;6122994;23;20919;-53
2023/05/22 00:31:50;;;;;;;6.90;4.95;;;;;;;20.66;57.78;101449.03;6122838;23;20014;-53
2023/05/22 00:34:15;;;;;;;5.68;4.97;;;;;;;20.65;57.63;101444.59;6122579;23;20014;-53
2023/05/22 00:36:41;;;;;;;6.07;5.03;;;;;;;20.65;57.38;101451.88;6124684;23;20006;-52
2023/05/22 00:39:06;;;;;;;8.32;5.13;;;;;;;20.65;57.54;101447.28;6124731;23;20006;-53
2023/05/22 00:41:35;;;;;;;6.10;4.57;;;;;;;20.65;57.67;101451.88;6124542;23;20408;-52
2023/05/22 00:44:01;;;;;;;4.93;4.43;;;;;;;20.64;57.29;101445.63;6124979;23;20044;-52
2023/05/22 00:46:27;;;;;;;5.50;4.88;;;;;;;20.63;57.38;101438.47;6124944;23;20061;-52
2023/05/22 00:48:53;;;;;;;8.05;4.53;;;;;;;20.62;57.52;101436.78;6124436;23;20006;-52
2023/05/22 00:51:22;;;;;;;5.70;4.25;;;;;;;20.62;57.24;101441.34;6124613;23;20017;-53
2023/05/22 00:53:49;;;;;;;5.40;4.18;;;;;;;20.62;57.44;101436.78;6124635;23;20013;-53
2023/05/22 00:56:15;;;;;;;5.07;4.30;;;;;;;20.62;57.52;101435.91;6124652;23;20033;-53
2023/05/22 00:58:41;;;;;;;6.15;4.80;;;;;;;20.61;57.69;101435.06;6125092;23;20010;-52
2023/05/22 01:01:08;;;;;;;5.03;4.50;;;;;;;20.61;57.41;101445.91;6124610;23;20010;-53
2023/05/22 01:03:43;;;;;;;7.53;4.88;;;;;;;20.60;57.62;101436.09;6124722;23;20034;-53
2023/05/22 01:06:13;;;;;;;6.93;4.63;;;;;;;20.59;57.28;101442.47;6124294;23;20009;-53
2023/05/22 01:08:40;;;;;;;4.65;4.18;;;;;;;20.61;57.54;101445.91;6122843;23;20088;-52
2023/05/22 01:11:21;;;;;;;6.03;4.25;;;;;;;20.60;57.19;101444.22;6124606;23;20437;-53
2023/05/22 01:13:55;;;;;;;5.43;4.53;;;;;;;20.60;57.28;101438.81;6124687;23;20009;-51
2023/05/22 01:16:31;;;;;;;4.90;4.40;;;;;;;20.59;57.19;101436.19;6124256;23;20018;-51
2023/05/22 01:19:30;;;;;;;4.97;4.40;;;;;;;20.59;57.41;101430.78;6124202;23;20417;-53
2023/05/22 01:22:16;;;;;;;5.32;4.53;;;;;;;20.58;57.17;101426.38;6124456;23;20069;-52
2023/05/22 01:24:47;;;;;;;5.07;4.38;;;;;;;20.58;57.26;101431.78;6124765;23;20032;-53
2023/05/22 01:27:14;;;;;;;;;;;;;;;20.69;57.06;101431.63;6099460;23;20089;-51
2023/05/22 01:29:56;;;;;;;5.50;4.43;;;;;;;20.61;57.37;101429.66;6124605;23;20228;-52
2023/05/22 01:32:24;;;;;;;7.05;4.78;;;;;;;20.58;57.26;101429.94;6124269;23;20080;-53
2023/05/22 01:35:00;;;;;;;6.00;4.47;;;;;;;20.57;57.52;101430.94;6124013;23;20017;-52
2023/05/22 01:37:26;;;;;;;5.72;4.20;;;;;;;20.58;57.37;101429.94;6123967;23;20012;-52
2023/05/22 01:39:53;;;;;;;5.40;4.57;;;;;;;20.56;57.61;101429.25;6124201;23;20345;-51
2023/05/22 01:42:19;;;;;;;4.85;4.35;;;;;;;20.57;57.46;101427.38;6124129;23;20002;-53
2023/05/22 01:44:46;;;;;;;4.93;4.43;;;;;;;20.56;57.24;101423.84;6124672;23;20060;-53
2023/05/22 01:47:12;;;;;;;4.75;4.28;;;;;;;20.56;57.46;101418.44;6124156;23;20069;-53
2023/05/22 01:49:38;;;;;;;5.68;4.40;;;;;;;20.57;57.23;101417.41;6123908;23;20010;-52
2023/05/22 01:52:43;;;;;;;4.60;3.97;;;;;;;20.59;57.35;101420.81;6124309;23;20014;-53
2023/05/22 01:55:16;;;;;;;4.88;4.38;;;;;;;20.53;57.08;101424.13;6106931;23;20017;-52
2023/05/22 01:58:01;;;;;;;5.28;4.30;;;;;;;20.55;57.15;101424.81;6123931;23;20002;-52
2023/05/22 02:00:28;;;;;;;6.28;4.70;;;;;;;20.53;57.38;101426.84;6124023;23;20006;-51
2023/05/22 02:03:16;;;;;;;5.18;4.65;;;;;;;20.54;57.15;101424.97;6098149;23;20024;-52
2023/05/22 02:05:44;;;;;;;4.78;4.30;;;;;;;20.51;57.43;101428.84;6124017;23;20009;-52
2023/05/22 02:08:12;;;;;;;5.45;4.65;;;;;;;20.52;57.11;101419.69;6123806;23;20040;-53
2023/05/22 02:10:37;;;;;;;5.40;4.30;;;;;;;20.50;57.48;101422.59;6124290;23;20649;-52
2023/05/22 02:13:03;;;;;;;4.85;4.40;;;;;;;20.50;57.44;101416.28;6123896;23;20371;-52
2023/05/22 02:15:29;;;;;;;5.60;4.80;;;;;;;20.49;57.50;101423.56;6123432;23;20022;-51
2023/05/22 02:17:55;;;;;;;5.93;4.75;;;;;;;20.50;57.31;101417.16;6123866;23;20448;-52
2023/05/22 02:20:21;;;;;;;6.13;4.82;;;;;;;20.50;57.00;101419.00;6123683;23;20013;-53
2023/05/22 02:22:47;;;;;;;4.72;4.22;;;;;;;20.50;57.08;101417.16;6124573;23;20017;-52
2023/05/22 02:25:14;;;;;;;4.65;4.18;;;;;;;20.51;57.18;101418.00;6123723;23;20006;-52
2023/05/22 02:27:44;;;;;;;5.43;4.53;;;;;;;20.51;57.12;101412.59;6123663;23;20013;-53
2023/05/22 02:30:10;;;;;;;5.88;4.40;;;;;;;20.51;57.27;101409.91;6124047;23;20480;-51
2023/05/22 02:32:37;;;;;;;8.32;4.80;;;;;;;20.50;57.39;101410.88;6123886;23;20079;-53
2023/05/22 02:35:03;;;;;;;7.55;4.78;;;;;;;20.50;57.60;101408.19;6123880;23;20021;-52
2023/05/22 02:37:29;;;;;;;6.20;4.63;;;;;;;20.51;57.54;101408.03;6123455;23;20085;-50
2023/05/22 02:39:55;;;;;;;5.22;4.35;;;;;;;20.49;57.33;101404.63;6123588;23;20081;-52
2023/05/22 02:42:20;;;;;;;5.05;4.25;;;;;;;20.50;57.24;101402.78;6123635;23;20012;-51
2023/05/22 02:44:45;;;;;;;6.78;4.00;;;;;;;20.50;57.43;101403.66;6124477;23;20036;-52
2023/05/22 02:47:11;;;;;;;4.85;4.40;;;;;;;20.49;57.33;101398.38;6123490;23;20093;-52
2023/05/22 02:49:36;;;;;;;7.65;4.82;;;;;;;20.49;57.56;101401.09;6123359;23;20013;-52
2023/05/22 02:52:02;;;;;;;7.15;4.63;;;;;;;20.49;57.56;101395.66;6123426;23;20060;-51
2023/05/22 02:54:27;;;;;;;7.07;4.40;;;;;;;20.49;57.09;101395.66;6123317;23;20452;-52
2023/05/22 02:56:52;;;;;;;4.97;4.47;;;;;;;20.47;57.20;101393.09;6123311;23;20010;-53
2023/05/22 02:59:18;;;;;;;5.43;3.95;;;;;;;20.47;57.05;101393.09;6123971;23;20013;-52
2023/05/22 03:01:44;;;;;;;7.07;5.00;;;;;;;20.48;57.30;101399.38;6123340;23;20014;-52
2023/05/22 03:04:11;;;;;;;5.55;4.30;;;;;;;20.47;57.30;101401.22;6123373;23;21036;-53
2023/05/22 03:06:37;;;;;;;4.63;4.05;;;;;;;20.46;57.26;101393.25;6123519;23;20021;-51
2023/05/22 03:09:03;;;;;;;5.07;4.38;;;;;;;20.46;57.53;101394.09;6123630;23;20421;-51
2023/05/22 03:11:29;;;;;;;4.85;4.13;;;;;;;20.46;57.53;101398.66;6123431;23;20384;-52
2023/05/22 03:13:55;;;;;;;6.25;4.65;;;;;;;20.46;57.28;101395.97;6123473;23;20316;-51
2023/05/22 03:16:20;;;;;;;6.65;4.22;;;;;;;20.43;57.46;101389.00;6123018;23;20025;-52
2023/05/22 03:18:46;;;;;;;7.43;4.35;;;;;;;20.44;57.13;101387.16;6124022;23;20013;-53
2023/05/22 03:21:12;;;;;;;6.95;4.45;;;;;;;20.43;57.09;101386.31;6123434;23;20013;-53
2023/05/22 03:23:37;;;;;;;4.50;3.90;;;;;;;20.43;57.18;101388.16;6123225;23;20084;-52
2023/05/22 03:26:02;;;;;;;6.85;5.15;;;;;;;20.41;57.10;101374.78;6123166;23;20259;-53
2023/05/22 03:28:28;;;;;;;6.32;4.82;;;;;;;20.42;57.40;101381.03;6123062;23;20422;-53
2023/05/22 03:30:53;;;;;;;6.28;4.72;;;;;;;20.41;57.13;101396.41;6123092;23;20444;-52
2023/05/22 03:33:18;;;;;;;5.80;4.82;;;;;;;20.40;57.42;101383.03;6123792;23;20084;-52
2023/05/22 03:35:44;;;;;;;5.55;4.05;;;;;;;20.39;56.97;101382.19;6122947;23;20330;-51
2023/05/22 03:38:09;;;;;;;6.00;4.57;;;;;;;20.39;57.13;101387.59;6123454;23;20376;-52
2023/05/22 03:40:35;;;;;;;5.40;4.50;;;;;;;20.39;56.97;101387.59;6123501;23;20010;-51
2023/05/22 03:43:00;;;;;;;5.07;4.25;;;;;;;20.40;57.18;101391.16;6123380;23;20017;-52
2023/05/22 03:45:25;;;;;;;4.82;4.32;;;;;;;20.38;56.88;101380.47;6123538;23;20311;-53
2023/05/22 03:47:51;;;;;;;5.70;4.60;;;;;;;20.38;57.19;101379.63;6123657;23;20097;-52
2023/05/22 03:50:16;;;;;;;6.90;4.45;;;;;;;20.37;57.08;101377.91;6122768;23;20012;-52
2023/05/22 03:52:42;;;;;;;5.68;4.65;;;;;;;20.36;57.22;101377.06;6123077;23;20013;-53
2023/05/22 03:55:07;;;;;;;5.85;4.80;;;;;;;20.37;57.32;101391.44;6123030;23;20010;-53
2023/05/22 03:57:33;;;;;;;7.35;4.78;;;;;;;20.37;56.83;101383.31;6123359;23;20002;-52
2023/05/22 04:00:05;;;;;;;6.55;4.72;;;;;;;20.36;57.03;101376.22;6123055;23;20010;-52
2023/05/22 04:02:30;;;;;;;4.93;4.35;;;;;;;20.36;56.90;101378.94;6122976;23;20013;-52
2023/05/22 04:04:56;;;;;;;5.80;4.38;;;;;;;20.37;56.75;101377.91;6122733;23;20060;-52
2023/05/22 04:07:21;;;;;;;5.35;4.35;;;;;;;20.36;56.83;101377.06;6123458;23;20044;-52
2023/05/22 04:09:46;;;;;;;6.03;4.38;;;;;;;20.36;57.09;101366.25;6123191;23;20021;-51
2023/05/22 04:12:12;;;;;;;8.02;4.88;;;;;;;20.36;56.91;101378.94;6124859;23;20421;-53
2023/05/22 04:14:37;;;;;;;5.70;4.35;;;;;;;20.34;56.89;101378.22;6124939;23;20100;-53
2023/05/22 04:17:02;;;;;;;5.85;4.38;;;;;;;20.34;56.64;101383.63;6124758;23;20014;-53
2023/05/22 04:19:28;;;;;;;4.97;4.47;;;;;;;20.33;56.59;101390.88;6124809;23;20010;-52
2023/05/22 04:21:55;;;;;;;6.35;5.38;;;;;;;20.33;56.98;101382.75;6124854;23;20014;-53
2023/05/22 04:24:21;;;;;;;8.40;5.28;;;;;;;20.33;56.96;101390.03;6125552;23;20057;-53
2023/05/22 04:26:48;;;;;;;7.03;4.88;;;;;;;20.31;57.04;101393.75;6124809;23;20040;-52
2023/05/22 04:29:13;;;;;;;5.70;4.55;;;;;;;20.33;56.98;101390.03;6124769;23;20014;-52
2023/05/22 04:31:39;;;;;;;6.60;4.50;;;;;;;20.32;57.12;101389.19;6124780;23;20033;-52
2023/05/22 04:34:05;;;;;;;5.82;4.90;;;;;;;20.31;56.74;101393.75;6124548;23;20016;-51
2023/05/22 04:36:30;;;;;;;5.97;4.63;;;;;;;20.31;56.89;101391.06;6125034;23;20002;-52
2023/05/22 04:38:56;;;;;;;7.25;4.82;;;;;;;20.31;56.62;101404.56;6124901;23;20334;-54
2023/05/22 04:41:25;;;;;;;5.00;4.43;;;;;;;20.33;56.70;101403.56;6125748;23;20022;-52
2023/05/22 04:43:51;;;;;;;5.20;4.60;;;;;;;20.31;56.97;101409.09;6125660;23;20013;-52
2023/05/22 04:46:18;;;;;;;7.82;5.15;;;;;;;20.32;57.11;101402.72;6124632;23;20013;-53
2023/05/22 04:48:43;;;;;;;8.10;4.57;;;;;;;20.31;57.62;101407.28;6124500;23;20391;-52
2023/05/22 04:51:09;;;;;;;6.20;4.40;;;;;;;20.31;57.37;101411.81;6124631;23;20010;-54
2023/05/22 04:53:35;;;;;;;5.88;4.65;;;;;;;20.30;57.20;101410.97;6124665;23;20010;-53
2023/05/22 04:56:01;;;;;;;7.28;4.57;;;;;;;20.30;57.32;101415.53;6124491;23;20014;-53
2023/05/22 04:58:26;;;;;;;5.45;4.43;;;;;;;20.31;57.05;101412.69;6124616;23;20009;-52
2023/05/22 05:00:53;;;;;;;7.35;4.70;;;;;;;20.31;56.61;101415.41;6125289;23;20441;-53
2023/05/22 05:03:19;;;;;;;5.38;4.47;;;;;;;20.31;57.10;101420.81;6124101;23;20001;-53
2023/05/22 05:05:46;;;;;;;6.22;5.10;;;;;;;20.31;57.21;101418.09;6124027;23;20014;-53
2023/05/22 05:08:12;;;;;;;8.43;4.55;;;;;;;20.31;57.04;101414.53;6123949;23;20006;-51
2023/05/22 05:10:37;;;;;;;5.45;4.43;;;;;;;20.31;57.42;101415.41;6124285;23;20010;-53
2023/05/22 05:13:02;;;;;;;6.97;5.25;;;;;;;20.30;57.19;101421.78;6124684;23;20073;-52
2023/05/22 05:15:28;;;;;;;9.52;5.03;;;;;;;20.33;57.33;101427.91;6123909;23;20017;-52
2023/05/22 05:17:54;;;;;;;7.10;4.68;;;;;;;20.31;57.48;101434.31;6124600;23;20017;-52
2023/05/22 05:20:19;;;;;;;6.47;4.95;;;;;;;20.29;57.30;101430.03;6123656;23;20009;-51
2023/05/22 05:22:45;;;;;;;7.90;4.97;;;;;;;20.30;57.10;101424.50;6123856;23;20589;-53
2023/05/22 05:25:11;;;;;;;8.60;5.47;;;;;;;20.29;57.07;101430.03;6123934;23;20006;-53
2023/05/22 05:27:36;;;;;;;9.80;5.30;;;;;;;20.31;57.11;101434.31;6123741;23;20006;-53
2023/05/22 05:30:02;;;;;;;7.85;5.40;;;;;;;20.30;57.18;101432.59;6123275;23;20013;-52
2023/05/22 05:32:28;;;;;;;7.00;5.15;;;;;;;20.29;57.08;101427.34;6124390;23;20014;-53
2023/05/22 05:34:55;;;;;;;6.38;4.90;;;;;;;20.28;56.63;101422.94;6124835;23;20005;-53
2023/05/22 05:37:20;;;;;;;7.18;5.40;;;;;;;20.28;57.19;101422.94;6124435;23;20012;-53
2023/05/22 05:39:45;;;;;;;6.20;5.05;;;;;;;20.28;56.98;101423.78;6123665;23;20081;-53
2023/05/22 05:42:11;;;;;;;6.70;4.82;;;;;;;20.28;56.73;101421.09;6124191;23;20014;-53
2023/05/22 05:44:37;;;;;;;8.13;5.03;;;;;;;20.28;56.56;101431.91;6124181;23;20090;-50
2023/05/22 05:47:02;;;;;;;6.80;4.97;;;;;;;20.28;56.85;101434.59;6124314;23;20013;-53
2023/05/22 05:49:27;;;;;;;9.13;5.68;;;;;;;20.28;57.09;101431.91;6123608;23;20426;-52
2023/05/22 05:51:53;;;;;;;8.82;5.35;;;;;;;20.28;57.50;101428.34;6124781;23;20009;-53
2023/05/22 05:54:18;;;;;;;10.82;5.43;;;;;;;20.28;57.12;101428.34;6124251;23;20385;-51
2023/05/22 05:56:44;;;;;;;8.73;5.63;;;;;;;20.27;57.01;101422.06;6123119;23;20037;-52
2023/05/22 05:59:09;;;;;;;7.88;5.45;;;;;;;20.27;56.64;101430.19;6122272;23;20014;-53
2023/05/22 06:01:37;;;;;;;8.07;5.32;;;;;;;20.28;56.98;101431.91;6122492;23;20013;-52
2023/05/22 06:04:04;;;;;;;10.02;5.05;;;;;;;20.28;57.07;101445.44;6122177;23;20092;-51
2023/05/22 06:06:34;;;;;;;6.22;5.18;;;;;;;20.29;57.30;101438.16;6122313;23;20006;-51
2023/05/22 06:09:00;;;;;;;8.47;5.70;;;;;;;20.28;56.97;101439.16;6122527;23;20333;-51
2023/05/22 06:11:25;;;;;;;10.80;5.63;;;;;;;20.29;57.05;101443.56;6123560;23;20013;-52
2023/05/22 06:13:50;;;;;;;10.95;5.75;;;;;;;20.28;56.61;101442.72;6123910;23;20010;-52
2023/05/22 06:16:16;;;;;;;9.30;4.82;;;;;;;20.28;56.92;101444.59;6123457;23;20026;-51
2023/05/22 06:18:41;;;;;;;13.45;5.82;;;;;;;20.28;56.69;101448.13;6123704;23;20013;-51
2023/05/22 06:21:07;;;;;;;12.68;5.53;;;;;;;20.28;57.02;101448.13;6123695;23;20010;-52
2023/05/22 06:23:32;;;;;;;8.25;5.15;;;;;;;20.30;56.68;101448.00;6123753;23;20396;-51
2023/05/22 06:25:57;;;;;;;8.23;5.50;;;;;;;20.29;56.94;101448.97;6124221;23;20056;-52
2023/05/22 06:28:23;;;;;;;8.73;4.82;;;;;;;20.31;57.15;101457.78;6124052;23;20312;-53
2023/05/22 06:30:48;;;;;;;11.02;5.72;;;;;;;20.29;57.01;101444.41;6123639;23;20020;-51
2023/05/22 06:33:13;;;;;;;7.90;4.65;;;;;;;20.29;57.04;101452.53;6123657;23;20013;-53
2023/05/22 06:35:39;;;;;;;8.50;5.40;;;;;;;20.31;56.97;101455.97;6123465;23;20029;-52
2023/05/22 06:38:05;;;;;;;8.95;5.45;;;;;;;20.32;57.09;101459.50;6122202;23;20016;-53
2023/05/22 06:40:31;;;;;;;7.57;5.00;;;;;;;20.30;57.18;101464.22;6123881;23;20064;-51
2023/05/22 06:42:57;;;;;;;7.90;5.05;;;;;;;20.31;56.99;101469.47;6124514;23;20014;-53
2023/05/22 06:45:22;;;;;;;7.30;4.97;;;;;;;20.31;57.29;101468.59;6123794;23;20484;-53
2023/05/22 06:47:52;;;;;;;8.90;6.05;;;;;;;20.32;57.13;101478.44;6123516;23;20006;-53
2023/05/22 06:50:18;;;;;;;7.88;5.28;;;;;;;20.31;56.96;101479.44;6123624;23;20036;-52
2023/05/22 06:52:43;;;;;;;9.43;5.65;;;;;;;20.31;56.87;101483.00;6123306;23;20201;-51
2023/05/22 06:55:08;;;;;;;7.82;5.05;;;;;;;20.31;56.88;101484.84;6123817;23;20148;-51
2023/05/22 06:57:34;;;;;;;8.52;5.47;;;;;;;20.31;57.31;101479.44;6123544;23;20014;-52
2023/05/22 06:59:59;;;;;;;8.02;5.60;;;;;;;20.30;57.32;101475.88;6123792;23;20006;-53
2023/05/22 07:02:25;;;;;;;8.57;5.32;;;;;;;20.30;57.11;101481.28;6124039;23;20018;-53
2023/05/22 07:04:52;;;;;;;8.70;5.20;;;;;;;20.32;57.08;101489.25;6123116;23;20391;-53
2023/05/22 07:07:17;;;;;;;8.20;5.40;;;;;;;20.31;57.36;101483.00;6123425;23;20038;-52
2023/05/22 07:09:43;;;;;;;8.60;6.00;;;;;;;20.31;56.99;101485.72;6123477;23;20010;-53
2023/05/22 07:12:09;;;;;;;8.65;5.68;;;;;;;20.30;57.13;101484.00;6123289;23;20390;-53
2023/05/22 07:14:34;;;;;;;7.65;5.03;;;;;;;20.32;57.09;101489.25;6123575;23;20093;-53
2023/05/22 07:16:59;;;;;;;11.10;5.93;;;;;;;20.31;57.25;101488.41;6123550;23;20049;-50
2023/05/22 07:19:25;;;;;;;10.98;5.60;;;;;;;20.31;57.15;101488.41;6122935;23;20385;-53
2023/05/22 07:21:50;;;;;;;9.23;5.70;;;;;;;20.31;57.27;101491.13;6123331;23;20037;-53
2023/05/22 07:24:16;;;;;;;8.05;5.65;;;;;;;20.31;57.12;101490.25;6123207;23;20081;-53
2023/05/22 07:26:45;;;;;;;7.63;5.18;;;;;;;20.32;57.03;101489.25;6123168;23;20426;-52
2023/05/22 07:29:10;;;;;;;9.80;5.22;;;;;;;20.31;56.93;101487.53;6123233;23;20064;-53
2023/05/22 07:31:37;;;;;;;7.93;5.20;;;;;;;20.31;57.03;101499.22;6123051;23;20425;-51
2023/05/22 07:34:03;;;;;;;11.15;6.50;;;;;;;20.31;56.97;101496.53;6123071;23;20060;-52
2023/05/22 07:36:29;;;;;;;7.75;5.18;;;;;;;20.31;57.09;101499.22;6123775;23;20374;-52
2023/05/22 07:38:54;;;;;;;12.02;5.57;;;;;;;20.33;57.06;101501.75;6123174;23;20016;-50
2023/05/22 07:41:21;;;;;;;7.18;5.30;;;;;;;20.34;56.95;101516.16;6123136;23;20017;-51
2023/05/22 07:43:46;;;;;;;10.13;5.97;;;;;;;20.33;57.13;101506.31;6123105;23;20010;-52
2023/05/22 07:46:12;;;;;;;8.70;5.13;;;;;;;20.34;57.20;101502.63;6122793;23;20016;-52
2023/05/22 07:48:37;;;;;;;8.23;5.10;;;;;;;20.33;57.28;101509.88;6123383;23;20044;-53
2023/05/22 07:51:03;;;;;;;7.50;5.03;;;;;;;20.34;57.29;101506.19;6122941;23;20416;-52
2023/05/22 07:53:28;;;;;;;7.82;5.32;;;;;;;20.34;56.98;101508.06;6123560;23;20006;-52
2023/05/22 07:55:54;;;;;;;7.72;5.25;;;;;;;20.34;57.33;101508.91;6123085;23;20060;-53
2023/05/22 07:58:19;;;;;;;6.03;5.00;;;;;;;20.36;57.65;101511.47;6123078;23;20005;-52
2023/05/22 08:00:45;;;;;;;9.02;4.68;;;;;;;20.36;57.22;101512.31;6123300;23;20317;-51
2023/05/22 08:03:10;;;;;;;9.45;5.22;;;;;;;20.36;57.33;101508.75;6123229;23;20005;-52
2023/05/22 08:05:36;;;;;;;8.38;4.93;;;;;;;20.37;57.08;101507.75;6123052;23;20010;-53
2023/05/22 08:08:02;;;;;;;7.32;4.82;;;;;;;20.36;57.29;101506.06;6123766;23;20085;-52
2023/05/22 08:10:28;;;;;;;9.40;5.28;;;;;;;20.36;57.04;101509.59;6123303;23;20006;-53
2023/05/22 08:12:53;;;;;;;9.57;5.15;;;;;;;20.39;57.51;101508.44;6123033;23;20415;-51
2023/05/22 08:15:19;;;;;;;10.07;5.30;;;;;;;20.38;57.49;101506.75;6122593;23;20010;-52
2023/05/22 08:17:44;;;;;;;9.68;5.25;;;;;;;20.38;57.29;101506.75;6122837;23;20015;-52
2023/05/22 08:20:10;;;;;;;7.05;5.20;;;;;;;20.38;57.32;101509.47;6122801;23;20084;-53
2023/05/22 08:22:38;;;;;;;13.57;5.82;;;;;;;20.38;57.13;101510.31;6123021;23;20437;-53
2023/05/22 08:25:03;;;;;;;7.00;5.05;;;;;;;20.38;57.12;101507.59;6123572;23;20084;-52
2023/05/22 08:27:29;;;;;;;10.40;5.57;;;;;;;20.39;57.52;101503.03;6123489;23;20452;-53
2023/05/22 08:29:55;;;;;;;8.27;5.45;;;;;;;20.40;57.13;101507.47;6122833;23;20010;-52
2023/05/22 08:32:20;;;;;;;8.32;5.47;;;;;;;20.40;57.29;101518.28;6123128;23;20017;-50
2023/05/22 08:34:46;;;;;;;9.13;6.10;;;;;;;20.40;57.55;101507.47;6122784;23;20010;-52
2023/05/22 08:37:13;;;;;;;9.73;5.70;;;;;;;20.41;57.70;101509.16;6123049;23;20002;-53
2023/05/22 08:39:39;;;;;;;9.15;5.70;;;;;;;20.41;57.42;101511.84;6122771;23;20010;-52
2023/05/22 08:42:05;;;;;;;11.63;5.90;;;;;;;20.41;57.44;101503.72;6123130;23;20066;-52
2023/05/22 08:44:30;;;;;;;6.55;4.82;;;;;;;20.42;57.72;101505.47;6123505;23;20430;-52
2023/05/22 08:46:58;;;;;;;10.30;5.70;;;;;;;20.42;57.77;101500.91;6122979;23;20129;-51
2023/05/22 08:49:24;;;;;;;6.90;5.28;;;;;;;20.43;57.24;101507.19;6122803;23;20006;-53
2023/05/22 08:51:56;;;;;;;5.95;4.70;;;;;;;20.43;57.67;101505.31;6123014;23;20006;-53
2023/05/22 08:54:24;;;;;;;;;;;;;;;20.54;57.47;101503.44;6123342;23;20002;-53
2023/05/22 08:56:52;;;;;;;8.32;5.50;;;;;;;20.47;57.34;101503.19;6123481;23;19932;-53
2023/05/22 08:59:19;;;;;;;8.38;5.32;;;;;;;20.46;57.45;101502.31;6124972;23;20378;-52
2023/05/22 09:01:45;;;;;;;8.35;4.93;;;;;;;20.48;57.62;101503.00;6124436;23;20021;-53
2023/05/22 09:04:11;;;;;;;8.07;5.65;;;;;;;20.47;57.62;101511.28;6124286;23;20033;-51
2023/05/22 09:06:37;;;;;;;7.25;5.45;;;;;;;20.48;57.67;101505.72;6124389;23;20429;-53
2023/05/22 09:09:03;;;;;;;8.98;6.25;;;;;;;20.48;57.26;101504.88;6125398;23;20041;-52
2023/05/22 09:11:30;;;;;;;6.68;5.55;;;;;;;20.49;57.48;101499.31;6124733;23;20022;-52
2023/05/22 09:14:15;;;;;;;8.57;5.75;;;;;;;20.54;57.36;101500.72;6124524;23;20040;-52
2023/05/22 09:16:46;;;;;;;9.77;5.70;;;;;;;20.52;57.61;101511.69;6123601;23;20453;-53
2023/05/22 09:19:13;;;;;;;10.40;5.95;;;;;;;20.53;57.80;101501.72;6124509;23;20009;-52
2023/05/22 09:21:39;;;;;;;14.43;5.85;;;;;;;20.53;57.97;101499.88;6124628;23;20045;-52
2023/05/22 09:24:07;;;;;;;11.60;6.20;;;;;;;20.54;58.35;101504.28;6125261;23;20009;-51
2023/05/22 09:26:33;;;;;;;10.90;6.07;;;;;;;20.56;58.06;101496.00;6124824;23;20010;-52
2023/05/22 09:28:58;;;;;;;8.25;5.93;;;;;;;20.56;58.08;101496.88;6124165;23;20020;-52
2023/05/22 09:31:24;;;;;;;13.20;6.78;;;;;;;20.56;58.39;101501.41;6124550;23;20014;-53
2023/05/22 09:33:49;;;;;;;12.40;7.30;;;;;;;20.58;58.34;101499.41;6124124;23;20333;-53
2023/05/22 09:36:16;;;;;;;10.68;6.45;;;;;;;20.59;58.24;101493.88;6124455;23;20014;-53
2023/05/22 09:38:41;;;;;;;10.68;6.60;;;;;;;20.60;58.44;101494.75;6124078;23;20006;-52
2023/05/22 09:41:06;;;;;;;8.00;6.60;;;;;;;20.61;58.35;101489.19;6125087;23;20085;-52
2023/05/22 09:43:32;;;;;;;17.42;7.28;;;;;;;20.62;58.73;101485.50;6124136;23;20006;-53
2023/05/22 09:46:03;;;;;;;8.73;6.93;;;;;;;20.62;58.30;101492.75;6124297;23;20010;-52
2023/05/22 09:48:32;;;;;;;11.98;7.30;;;;;;;20.62;58.48;101490.91;6124137;23;20018;-52
2023/05/22 09:50:59;;;;;;;12.60;7.43;;;;;;;20.62;58.43;101481.91;6123938;23;20016;-52
2023/05/22 09:53:27;;;;;;;12.00;7.45;;;;;;;20.62;58.59;101480.09;6124065;23;20006;-53
2023/05/22 09:55:55;;;;;;;11.25;7.57;;;;;;;20.64;58.90;101482.66;6124126;23;20443;-53
2023/05/22 09:58:24;;;;;;;12.95;7.65;;;;;;;20.64;58.96;101479.94;6124227;23;20002;-52
2023/05/22 10:00:49;;;;;;;14.68;7.78;;;;;;;20.64;58.96;101480.78;6124061;23;20006;-52
2023/05/22 10:03:17;;;;;;;12.82;7.80;;;;;;;20.65;59.07;101479.78;6098053;23;20072;-51
2023/05/22 10:05:50;;;;;;;12.63;8.40;;;;;;;20.65;58.78;101474.34;6124021;23;20095;-52
2023/05/22 10:08:25;;;;;;;11.52;7.93;;;;;;;20.67;58.59;101476.91;6123671;23;20006;-53
2023/05/22 10:10:54;;;;;;;11.40;7.63;;;;;;;20.67;58.71;101482.34;6124115;23;20073;-51
2023/05/22 10:13:20;;;;;;;13.32;8.43;;;;;;;20.69;58.86;101486.63;6097872;23;20002;-53
2023/05/22 10:15:49;;;;;;;14.55;8.38;;;;;;;20.70;59.04;101479.34;6123861;23;20441;-53
2023/05/22 10:18:16;;;;;;;13.68;8.60;;;;;;;20.72;58.71;101484.63;6123845;23;20010;-50
2023/05/22 10:20:42;;;;;;;12.57;8.23;;;;;;;20.70;58.74;101480.19;6123974;23;20005;-52
2023/05/22 10:23:08;;;;;;;12.85;8.13;;;;;;;20.71;59.00;101478.31;6124057;23;20409;-53
2023/05/22 10:25:36;;;;;;;13.60;8.98;;;;;;;20.72;59.29;101477.34;6123593;23;20085;-52
2023/05/22 10:28:02;;;;;;;13.20;9.15;;;;;;;20.73;58.97;101481.72;6123661;23;20021;-53
2023/05/22 10:30:41;;;;;;;18.05;9.65;;;;;;;20.75;58.71;101473.47;6123729;23;20045;-53
2023/05/22 10:33:15;;;;;;;13.18;9.27;;;;;;;20.75;59.00;101473.47;6124583;23;20032;-53
2023/05/22 10:35:51;;;;;;;13.80;9.88;;;;;;;20.74;59.36;101471.78;6123291;23;20006;-53
2023/05/22 10:38:41;;;;;;;16.58;9.55;;;;;;;20.77;58.61;101475.03;6096966;23;20013;-52
2023/05/22 10:41:07;;;;;;;15.02;9.57;;;;;;;20.76;59.33;101470.63;6123998;23;20005;-52
2023/05/22 10:43:39;;;;;;;16.10;8.88;;;;;;;20.78;59.04;101468.63;6122969;23;20021;-52
2023/05/22 10:46:06;;;;;;;17.30;9.48;;;;;;;20.78;59.40;101467.78;6123479;23;20432;-53
2023/05/22 10:48:39;;;;;;;17.90;9.55;;;;;;;20.79;58.88;101474.88;6122780;23;20439;-52
2023/05/22 10:51:06;;;;;;;13.25;9.38;;;;;;;20.79;59.14;101477.56;6123260;23;20002;-51
2023/05/22 10:53:34;;;;;;;20.00;10.88;;;;;;;20.79;59.20;101464.03;6123434;23;20334;-53
2023/05/22 10:56:11;;;;;;;15.00;10.48;;;;;;;20.80;59.41;101465.75;6123130;23;20008;-52
2023/05/22 10:58:37;;;;;;;14.25;9.98;;;;;;;20.80;59.43;101457.66;6124236;23;20025;-53
2023/05/22 11:01:07;;;;;;;13.00;9.73;;;;;;;20.80;59.36;101461.19;6123519;23;20006;-53
2023/05/22 11:03:53;;;;;;;16.23;10.35;;;;;;;20.83;59.26;101465.47;6123365;23;20329;-53
2023/05/22 11:06:35;;;;;;;14.95;10.65;;;;;;;20.83;59.41;101460.91;6124065;23;20436;-52
2023/05/22 11:09:26;;;;;;;15.15;10.93;;;;;;;20.85;59.45;101461.59;6124491;23;20072;-53
2023/05/22 11:12:16;;;;;;;14.67;9.87;;;;;;;20.87;59.64;101461.47;6124536;23;20030;-53
2023/05/22 11:14:52;;;;;;;14.30;10.32;;;;;;;20.87;59.71;101459.59;6124127;23;20433;-53
2023/05/22 11:17:29;;;;;;;17.58;10.57;;;;;;;20.86;59.53;101448.91;6123371;23;20093;-53
2023/05/22 11:20:11;;;;;;;14.38;10.27;;;;;;;20.88;59.44;101457.72;6124096;23;20017;-51
2023/05/22 11:22:41;;;;;;;14.98;10.35;;;;;;;20.88;59.69;101446.91;6124519;23;20006;-51
2023/05/22 11:25:15;;;;;;;16.70;10.38;;;;;;;20.88;59.64;101444.19;6124415;23;20010;-53